sensor_id;sensor_type;location;lat;lon;timestamp;temperature;humidity
51863;DHT22;37900;52.996;6.278;2023-07-20T00:01:16;20.50;92.90
51863;DHT22;37900;52.996;6.278;2023-07-20T00:03:41;20.50;92.90
51863;DHT22;37900;52.996;6.278;2023-07-20T00:06:07;20.60;93.00
51863;DHT22;37900;52.996;6.278;2023-07-20T00:08:33;20.50;92.90
51863;DHT22;37900;52.996;6.278;2023-07-20T00:10:59;20.50;92.90
51863;DHT22;37900;52.996;6.278;2023-07-20T00:13:24;20.50;92.90
51863;DHT22;37900;52.996;6.278;2023-07-20T00:15:52;20.50;92.90
51863;DHT22;37900;52.996;6.278;2023-07-20T00:18:17;20.50;92.90
51863;DHT22;37900;52.996;6.278;2023-07-20T00:20:47;20.50;92.80
51863;DHT22;37900;52.996;6.278;2023-07-20T00:23:12;20.50;92.90
51863;DHT22;37900;52.996;6.278;2023-07-20T00:25:38;20.50;92.90
51863;DHT22;37900;52.996;6.278;2023-07-20T00:28:04;20.50;92.90
51863;DHT22;37900;52.996;6.278;2023-07-20T00:30:29;20.50;92.90
51863;DHT22;37900;52.996;6.278;2023-07-20T00:32:55;20.50;92.90
51863;DHT22;37900;52.996;6.278;2023-07-20T00:35:21;20.50;92.90
51863;DHT22;37900;52.996;6.278;2023-07-20T00:37:46;20.50;92.90
51863;DHT22;37900;52.996;6.278;2023-07-20T00:40:12;20.50;92.90
51863;DHT22;37900;52.996;6.278;2023-07-20T00:42:38;20.50;92.90
51863;DHT22;37900;52.996;6.278;2023-07-20T00:45:04;20.50;92.90
51863;DHT22;37900;52.996;6.278;2023-07-20T00:47:30;20.50;92.90
51863;DHT22;37900;52.996;6.278;2023-07-20T00:49:56;20.50;92.90
51863;DHT22;37900;52.996;6.278;2023-07-20T00:52:24;20.50;92.90
51863;DHT22;37900;52.996;6.278;2023-07-20T00:54:51;20.40;92.80
51863;DHT22;37900;52.996;6.278;2023-07-20T00:57:18;20.50;92.90
51863;DHT22;37900;52.996;6.278;2023-07-20T00:59:44;20.50;92.90
51863;DHT22;37900;52.996;6.278;2023-07-20T01:02:10;20.40;92.80
51863;DHT22;37900;52.996;6.278;2023-07-20T01:04:36;20.40;92.80
51863;DHT22;37900;52.996;6.278;2023-07-20T01:07:25;20.50;92.90
51863;DHT22;37900;52.996;6.278;2023-07-20T01:10:06;20.50;92.80
51863;DHT22;37900;52.996;6.278;2023-07-20T01:15:06;20.40;92.80
51863;DHT22;37900;52.996;6.278;2023-07-20T01:17:34;20.30;92.80
51863;DHT22;37900;52.996;6.278;2023-07-20T01:20:00;20.50;92.80
51863;DHT22;37900;52.996;6.278;2023-07-20T01:31:07;20.40;92.80
51863;DHT22;37900;52.996;6.278;2023-07-20T01:33:33;20.40;92.70
51863;DHT22;37900;52.996;6.278;2023-07-20T01:36:00;20.40;92.80
51863;DHT22;37900;52.996;6.278;2023-07-20T01:38:26;20.40;92.80
51863;DHT22;37900;52.996;6.278;2023-07-20T01:40:52;20.40;92.80
51863;DHT22;37900;52.996;6.278;2023-07-20T01:43:18;20.40;92.80
51863;DHT22;37900;52.996;6.278;2023-07-20T01:45:44;20.40;92.80
51863;DHT22;37900;52.996;6.278;2023-07-20T01:48:10;20.40;92.80
51863;DHT22;37900;52.996;6.278;2023-07-20T01:50:36;20.40;92.80
51863;DHT22;37900;52.996;6.278;2023-07-20T01:53:01;20.40;92.70
51863;DHT22;37900;52.996;6.278;2023-07-20T01:55:27;20.40;92.70
51863;DHT22;37900;52.996;6.278;2023-07-20T01:57:55;20.40;92.70
51863;DHT22;37900;52.996;6.278;2023-07-20T02:00:21;20.40;92.70
51863;DHT22;37900;52.996;6.278;2023-07-20T02:02:50;20.40;92.70
51863;DHT22;37900;52.996;6.278;2023-07-20T02:05:16;20.40;93.00
51863;DHT22;37900;52.996;6.278;2023-07-20T02:07:42;20.40;92.70
51863;DHT22;37900;52.996;6.278;2023-07-20T02:10:08;20.40;92.70
51863;DHT22;37900;52.996;6.278;2023-07-20T02:12:33;20.40;92.70
51863;DHT22;37900;52.996;6.278;2023-07-20T02:14:59;20.40;92.70
51863;DHT22;37900;52.996;6.278;2023-07-20T02:17:25;20.40;92.70
51863;DHT22;37900;52.996;6.278;2023-07-20T02:19:54;20.40;92.70
51863;DHT22;37900;52.996;6.278;2023-07-20T02:22:20;20.40;92.70
51863;DHT22;37900;52.996;6.278;2023-07-20T02:24:46;20.40;92.70
51863;DHT22;37900;52.996;6.278;2023-07-20T02:27:12;20.40;92.70
51863;DHT22;37900;52.996;6.278;2023-07-20T02:29:38;20.40;92.70
51863;DHT22;37900;52.996;6.278;2023-07-20T02:32:03;20.40;92.70
51863;DHT22;37900;52.996;6.278;2023-07-20T02:34:29;20.40;92.70
51863;DHT22;37900;52.996;6.278;2023-07-20T02:36:55;20.40;92.60
51863;DHT22;37900;52.996;6.278;2023-07-20T02:39:29;20.40;92.60
51863;DHT22;37900;52.996;6.278;2023-07-20T02:41:55;20.40;92.60
51863;DHT22;37900;52.996;6.278;2023-07-20T02:44:20;20.40;92.60
51863;DHT22;37900;52.996;6.278;2023-07-20T02:46:46;20.40;92.60
51863;DHT22;37900;52.996;6.278;2023-07-20T02:49:12;20.40;92.60
51863;DHT22;37900;52.996;6.278;2023-07-20T02:51:37;20.40;92.60
51863;DHT22;37900;52.996;6.278;2023-07-20T02:54:03;20.30;92.60
51863;DHT22;37900;52.996;6.278;2023-07-20T02:56:29;20.40;92.60
51863;DHT22;37900;52.996;6.278;2023-07-20T02:58:55;20.40;92.60
51863;DHT22;37900;52.996;6.278;2023-07-20T03:01:20;20.30;92.60
51863;DHT22;37900;52.996;6.278;2023-07-20T03:03:46;20.30;92.50
51863;DHT22;37900;52.996;6.278;2023-07-20T03:06:14;20.40;92.50
51863;DHT22;37900;52.996;6.278;2023-07-20T03:08:43;20.30;92.50
51863;DHT22;37900;52.996;6.278;2023-07-20T03:11:18;20.30;92.50
51863;DHT22;37900;52.996;6.278;2023-07-20T03:13:45;20.30;92.50
51863;DHT22;37900;52.996;6.278;2023-07-20T03:16:12;20.30;92.50
51863;DHT22;37900;52.996;6.278;2023-07-20T03:18:41;20.30;92.50
51863;DHT22;37900;52.996;6.278;2023-07-20T03:21:08;20.30;92.50
51863;DHT22;37900;52.996;6.278;2023-07-20T03:23:34;20.30;92.50
51863;DHT22;37900;52.996;6.278;2023-07-20T03:26:00;20.30;92.50
51863;DHT22;37900;52.996;6.278;2023-07-20T03:28:26;20.30;92.50
51863;DHT22;37900;52.996;6.278;2023-07-20T03:30:58;20.30;92.50
51863;DHT22;37900;52.996;6.278;2023-07-20T03:33:29;20.30;92.50
51863;DHT22;37900;52.996;6.278;2023-07-20T03:35:55;20.30;92.50
51863;DHT22;37900;52.996;6.278;2023-07-20T03:38:21;20.30;92.70
51863;DHT22;37900;52.996;6.278;2023-07-20T03:40:57;20.30;92.50
51863;DHT22;37900;52.996;6.278;2023-07-20T03:43:24;20.30;92.40
51863;DHT22;37900;52.996;6.278;2023-07-20T03:45:50;20.30;92.50
51863;DHT22;37900;52.996;6.278;2023-07-20T03:48:18;20.30;92.40
51863;DHT22;37900;52.996;6.278;2023-07-20T03:50:45;20.30;92.40
51863;DHT22;37900;52.996;6.278;2023-07-20T03:53:12;20.30;92.40
51863;DHT22;37900;52.996;6.278;2023-07-20T03:55:38;20.30;92.40
51863;DHT22;37900;52.996;6.278;2023-07-20T03:58:06;20.30;92.40
51863;DHT22;37900;52.996;6.278;2023-07-20T04:00:32;20.30;92.40
51863;DHT22;37900;52.996;6.278;2023-07-20T04:02:57;20.30;92.40
51863;DHT22;37900;52.996;6.278;2023-07-20T04:05:24;20.30;92.40
51863;DHT22;37900;52.996;6.278;2023-07-20T04:07:51;20.30;92.40
51863;DHT22;37900;52.996;6.278;2023-07-20T04:10:18;20.20;92.40
51863;DHT22;37900;52.996;6.278;2023-07-20T04:12:44;20.20;92.40
51863;DHT22;37900;52.996;6.278;2023-07-20T04:15:10;20.20;92.40
51863;DHT22;37900;52.996;6.278;2023-07-20T04:17:36;20.20;92.40
51863;DHT22;37900;52.996;6.278;2023-07-20T04:20:02;20.20;92.40
51863;DHT22;37900;52.996;6.278;2023-07-20T04:22:28;20.20;92.40
51863;DHT22;37900;52.996;6.278;2023-07-20T04:24:54;20.30;92.40
51863;DHT22;37900;52.996;6.278;2023-07-20T04:27:20;20.20;92.40
51863;DHT22;37900;52.996;6.278;2023-07-20T04:29:46;20.20;92.40
51863;DHT22;37900;52.996;6.278;2023-07-20T04:32:11;20.30;92.40
51863;DHT22;37900;52.996;6.278;2023-07-20T04:34:37;20.30;92.40
51863;DHT22;37900;52.996;6.278;2023-07-20T04:37:04;20.30;92.40
51863;DHT22;37900;52.996;6.278;2023-07-20T04:39:30;20.20;92.30
51863;DHT22;37900;52.996;6.278;2023-07-20T04:41:56;20.30;92.30
51863;DHT22;37900;52.996;6.278;2023-07-20T04:44:22;20.30;92.40
51863;DHT22;37900;52.996;6.278;2023-07-20T04:46:48;20.20;92.30
51863;DHT22;37900;52.996;6.278;2023-07-20T04:49:13;20.20;92.30
51863;DHT22;37900;52.996;6.278;2023-07-20T04:51:39;20.20;92.30
51863;DHT22;37900;52.996;6.278;2023-07-20T04:54:05;20.20;92.30
51863;DHT22;37900;52.996;6.278;2023-07-20T04:56:31;20.20;92.30
51863;DHT22;37900;52.996;6.278;2023-07-20T04:58:57;20.20;92.30
51863;DHT22;37900;52.996;6.278;2023-07-20T05:01:23;20.20;92.30
51863;DHT22;37900;52.996;6.278;2023-07-20T05:03:49;20.30;92.40
51863;DHT22;37900;52.996;6.278;2023-07-20T05:06:15;20.20;92.40
51863;DHT22;37900;52.996;6.278;2023-07-20T05:08:41;20.20;92.40
51863;DHT22;37900;52.996;6.278;2023-07-20T05:11:07;20.20;92.40
51863;DHT22;37900;52.996;6.278;2023-07-20T05:13:33;20.30;92.40
51863;DHT22;37900;52.996;6.278;2023-07-20T05:15:59;20.30;92.40
51863;DHT22;37900;52.996;6.278;2023-07-20T05:18:24;20.20;92.40
51863;DHT22;37900;52.996;6.278;2023-07-20T05:20:51;20.30;92.40
51863;DHT22;37900;52.996;6.278;2023-07-20T05:23:20;20.30;92.40
51863;DHT22;37900;52.996;6.278;2023-07-20T05:25:46;20.20;92.40
51863;DHT22;37900;52.996;6.278;2023-07-20T05:28:12;20.30;92.50
51863;DHT22;37900;52.996;6.278;2023-07-20T05:30:38;20.30;92.40
51863;DHT22;37900;52.996;6.278;2023-07-20T05:33:03;20.30;92.40
51863;DHT22;37900;52.996;6.278;2023-07-20T05:35:29;20.30;92.50
51863;DHT22;37900;52.996;6.278;2023-07-20T05:37:55;20.30;92.50
51863;DHT22;37900;52.996;6.278;2023-07-20T05:40:20;20.30;92.50
51863;DHT22;37900;52.996;6.278;2023-07-20T05:42:47;20.30;92.50
51863;DHT22;37900;52.996;6.278;2023-07-20T05:45:14;20.30;92.50
51863;DHT22;37900;52.996;6.278;2023-07-20T05:47:41;20.30;92.50
51863;DHT22;37900;52.996;6.278;2023-07-20T05:50:07;20.30;92.50
51863;DHT22;37900;52.996;6.278;2023-07-20T05:52:33;20.30;92.50
51863;DHT22;37900;52.996;6.278;2023-07-20T05:54:59;20.30;92.50
51863;DHT22;37900;52.996;6.278;2023-07-20T05:57:24;20.30;92.50
51863;DHT22;37900;52.996;6.278;2023-07-20T05:59:50;20.40;92.50
51863;DHT22;37900;52.996;6.278;2023-07-20T06:02:16;20.40;92.60
51863;DHT22;37900;52.996;6.278;2023-07-20T06:04:42;20.40;92.60
51863;DHT22;37900;52.996;6.278;2023-07-20T06:07:08;20.40;92.60
51863;DHT22;37900;52.996;6.278;2023-07-20T06:09:34;20.40;92.60
51863;DHT22;37900;52.996;6.278;2023-07-20T06:12:00;20.30;92.60
51863;DHT22;37900;52.996;6.278;2023-07-20T06:14:25;20.40;92.60
51863;DHT22;37900;52.996;6.278;2023-07-20T06:16:51;20.40;92.70
51863;DHT22;37900;52.996;6.278;2023-07-20T06:19:17;20.40;92.70
51863;DHT22;37900;52.996;6.278;2023-07-20T06:21:43;20.40;92.70
51863;DHT22;37900;52.996;6.278;2023-07-20T06:24:09;20.40;92.70
51863;DHT22;37900;52.996;6.278;2023-07-20T06:26:34;20.40;92.80
51863;DHT22;37900;52.996;6.278;2023-07-20T06:29:06;20.40;92.80
51863;DHT22;37900;52.996;6.278;2023-07-20T06:31:33;20.40;92.80
51863;DHT22;37900;52.996;6.278;2023-07-20T06:33:59;20.40;92.90
51863;DHT22;37900;52.996;6.278;2023-07-20T06:36:25;20.40;92.90
51863;DHT22;37900;52.996;6.278;2023-07-20T06:38:52;20.40;92.90
51863;DHT22;37900;52.996;6.278;2023-07-20T06:41:18;20.40;92.90
51863;DHT22;37900;52.996;6.278;2023-07-20T06:43:44;20.40;93.00
51863;DHT22;37900;52.996;6.278;2023-07-20T06:46:10;20.40;92.90
51863;DHT22;37900;52.996;6.278;2023-07-20T06:48:36;20.40;92.90
51863;DHT22;37900;52.996;6.278;2023-07-20T06:51:01;20.40;92.90
51863;DHT22;37900;52.996;6.278;2023-07-20T06:53:28;20.40;92.90
51863;DHT22;37900;52.996;6.278;2023-07-20T06:55:54;20.40;92.90
51863;DHT22;37900;52.996;6.278;2023-07-20T06:58:25;20.40;92.90
51863;DHT22;37900;52.996;6.278;2023-07-20T07:00:51;20.40;93.00
51863;DHT22;37900;52.996;6.278;2023-07-20T07:03:17;20.40;93.00
51863;DHT22;37900;52.996;6.278;2023-07-20T07:05:43;20.40;93.00
51863;DHT22;37900;52.996;6.278;2023-07-20T07:08:10;20.40;93.00
51863;DHT22;37900;52.996;6.278;2023-07-20T07:10:36;20.40;93.00
51863;DHT22;37900;52.996;6.278;2023-07-20T07:13:02;20.40;93.00
51863;DHT22;37900;52.996;6.278;2023-07-20T07:15:28;20.40;93.00
51863;DHT22;37900;52.996;6.278;2023-07-20T07:17:54;20.40;93.00
51863;DHT22;37900;52.996;6.278;2023-07-20T07:20:20;20.40;93.00
51863;DHT22;37900;52.996;6.278;2023-07-20T07:22:50;20.40;93.00
51863;DHT22;37900;52.996;6.278;2023-07-20T07:25:16;20.40;93.00
51863;DHT22;37900;52.996;6.278;2023-07-20T07:27:42;20.40;93.00
51863;DHT22;37900;52.996;6.278;2023-07-20T07:30:08;20.40;93.00
51863;DHT22;37900;52.996;6.278;2023-07-20T07:32:33;20.40;93.00
51863;DHT22;37900;52.996;6.278;2023-07-20T07:34:59;20.40;93.10
51863;DHT22;37900;52.996;6.278;2023-07-20T07:37:26;20.40;93.10
51863;DHT22;37900;52.996;6.278;2023-07-20T07:39:51;20.40;93.10
51863;DHT22;37900;52.996;6.278;2023-07-20T07:42:17;20.40;93.10
51863;DHT22;37900;52.996;6.278;2023-07-20T07:44:44;20.40;93.10
51863;DHT22;37900;52.996;6.278;2023-07-20T07:47:10;20.40;93.10
51863;DHT22;37900;52.996;6.278;2023-07-20T07:49:36;20.40;93.10
51863;DHT22;37900;52.996;6.278;2023-07-20T07:52:02;20.40;93.10
51863;DHT22;37900;52.996;6.278;2023-07-20T07:54:28;20.40;93.10
51863;DHT22;37900;52.996;6.278;2023-07-20T07:56:54;20.40;93.10
51863;DHT22;37900;52.996;6.278;2023-07-20T07:59:20;20.40;93.20
51863;DHT22;37900;52.996;6.278;2023-07-20T08:01:46;20.40;93.20
51863;DHT22;37900;52.996;6.278;2023-07-20T08:04:12;20.40;93.20
51863;DHT22;37900;52.996;6.278;2023-07-20T08:06:38;20.40;93.20
51863;DHT22;37900;52.996;6.278;2023-07-20T08:09:04;20.40;93.10
51863;DHT22;37900;52.996;6.278;2023-07-20T08:11:30;20.40;93.20
51863;DHT22;37900;52.996;6.278;2023-07-20T08:14:01;20.40;93.20
51863;DHT22;37900;52.996;6.278;2023-07-20T08:16:27;20.40;93.20
51863;DHT22;37900;52.996;6.278;2023-07-20T08:18:53;20.40;93.20
51863;DHT22;37900;52.996;6.278;2023-07-20T08:21:19;20.40;93.20
51863;DHT22;37900;52.996;6.278;2023-07-20T08:23:44;20.40;93.50
51863;DHT22;37900;52.996;6.278;2023-07-20T08:26:10;20.40;93.30
51863;DHT22;37900;52.996;6.278;2023-07-20T08:28:36;20.40;93.50
51863;DHT22;37900;52.996;6.278;2023-07-20T08:31:02;20.40;93.30
51863;DHT22;37900;52.996;6.278;2023-07-20T08:33:28;20.40;93.30
51863;DHT22;37900;52.996;6.278;2023-07-20T08:35:55;20.40;93.30
51863;DHT22;37900;52.996;6.278;2023-07-20T08:38:22;20.40;93.30
51863;DHT22;37900;52.996;6.278;2023-07-20T08:40:47;20.40;93.30
51863;DHT22;37900;52.996;6.278;2023-07-20T08:43:14;20.40;93.30
51863;DHT22;37900;52.996;6.278;2023-07-20T08:45:42;20.40;93.30
51863;DHT22;37900;52.996;6.278;2023-07-20T08:48:08;20.40;93.30
51863;DHT22;37900;52.996;6.278;2023-07-20T08:50:35;20.40;93.30
51863;DHT22;37900;52.996;6.278;2023-07-20T08:53:02;20.40;93.30
51863;DHT22;37900;52.996;6.278;2023-07-20T08:55:29;20.40;93.30
51863;DHT22;37900;52.996;6.278;2023-07-20T08:57:56;20.40;93.30
51863;DHT22;37900;52.996;6.278;2023-07-20T09:00:22;20.40;93.20
51863;DHT22;37900;52.996;6.278;2023-07-20T09:02:53;20.40;93.10
51863;DHT22;37900;52.996;6.278;2023-07-20T09:05:23;20.40;93.20
51863;DHT22;37900;52.996;6.278;2023-07-20T09:07:52;20.40;93.10
51863;DHT22;37900;52.996;6.278;2023-07-20T09:10:21;20.40;93.10
51863;DHT22;37900;52.996;6.278;2023-07-20T09:12:46;20.40;93.10
51863;DHT22;37900;52.996;6.278;2023-07-20T09:15:12;20.40;93.10
51863;DHT22;37900;52.996;6.278;2023-07-20T09:17:38;20.40;93.10
51863;DHT22;37900;52.996;6.278;2023-07-20T09:20:05;20.40;93.10
51863;DHT22;37900;52.996;6.278;2023-07-20T09:22:38;20.40;93.10
51863;DHT22;37900;52.996;6.278;2023-07-20T09:25:15;20.40;93.00
51863;DHT22;37900;52.996;6.278;2023-07-20T09:27:43;20.40;93.00
51863;DHT22;37900;52.996;6.278;2023-07-20T09:30:10;20.40;93.00
51863;DHT22;37900;52.996;6.278;2023-07-20T09:32:44;20.40;93.00
51863;DHT22;37900;52.996;6.278;2023-07-20T09:37:40;20.40;92.90
51863;DHT22;37900;52.996;6.278;2023-07-20T09:40:09;20.40;92.90
51863;DHT22;37900;52.996;6.278;2023-07-20T09:42:36;20.40;92.90
51863;DHT22;37900;52.996;6.278;2023-07-20T09:45:02;20.40;92.90
51863;DHT22;37900;52.996;6.278;2023-07-20T09:47:28;20.40;92.90
51863;DHT22;37900;52.996;6.278;2023-07-20T09:49:58;20.40;92.80
51863;DHT22;37900;52.996;6.278;2023-07-20T09:52:29;20.40;92.80
51863;DHT22;37900;52.996;6.278;2023-07-20T09:54:55;20.40;92.80
51863;DHT22;37900;52.996;6.278;2023-07-20T09:57:21;20.40;92.80
51863;DHT22;37900;52.996;6.278;2023-07-20T09:59:47;20.40;92.80
51863;DHT22;37900;52.996;6.278;2023-07-20T10:02:20;20.40;92.80
51863;DHT22;37900;52.996;6.278;2023-07-20T10:04:49;20.40;92.80
51863;DHT22;37900;52.996;6.278;2023-07-20T10:07:19;20.40;92.80
51863;DHT22;37900;52.996;6.278;2023-07-20T10:09:47;20.40;92.80
51863;DHT22;37900;52.996;6.278;2023-07-20T10:12:13;20.40;92.80
51863;DHT22;37900;52.996;6.278;2023-07-20T10:14:48;20.40;92.70
51863;DHT22;37900;52.996;6.278;2023-07-20T10:17:17;20.40;92.80
51863;DHT22;37900;52.996;6.278;2023-07-20T10:19:47;20.40;92.80
51863;DHT22;37900;52.996;6.278;2023-07-20T10:22:19;20.40;92.80
51863;DHT22;37900;52.996;6.278;2023-07-20T10:24:46;20.40;92.80
51863;DHT22;37900;52.996;6.278;2023-07-20T10:27:15;20.40;92.80
51863;DHT22;37900;52.996;6.278;2023-07-20T10:29:42;20.40;92.80
51863;DHT22;37900;52.996;6.278;2023-07-20T10:32:09;20.40;92.90
51863;DHT22;37900;52.996;6.278;2023-07-20T10:34:35;20.40;92.90
51863;DHT22;37900;52.996;6.278;2023-07-20T10:37:01;20.40;93.00
51863;DHT22;37900;52.996;6.278;2023-07-20T10:39:28;20.40;93.00
51863;DHT22;37900;52.996;6.278;2023-07-20T10:42:10;20.40;93.00
51863;DHT22;37900;52.996;6.278;2023-07-20T10:44:39;20.40;93.00
51863;DHT22;37900;52.996;6.278;2023-07-20T10:47:09;20.40;93.00
51863;DHT22;37900;52.996;6.278;2023-07-20T10:49:59;20.40;93.00
51863;DHT22;37900;52.996;6.278;2023-07-20T10:52:26;20.40;93.00
51863;DHT22;37900;52.996;6.278;2023-07-20T10:54:51;20.40;93.00
51863;DHT22;37900;52.996;6.278;2023-07-20T10:57:31;20.40;93.00
51863;DHT22;37900;52.996;6.278;2023-07-20T11:00:11;20.40;93.00
51863;DHT22;37900;52.996;6.278;2023-07-20T11:02:48;20.40;93.00
51863;DHT22;37900;52.996;6.278;2023-07-20T11:05:35;20.40;93.00
51863;DHT22;37900;52.996;6.278;2023-07-20T11:08:03;20.40;93.00
51863;DHT22;37900;52.996;6.278;2023-07-20T11:10:29;20.40;93.00
51863;DHT22;37900;52.996;6.278;2023-07-20T11:13:21;20.40;93.00
51863;DHT22;37900;52.996;6.278;2023-07-20T11:16:02;20.40;93.10
51863;DHT22;37900;52.996;6.278;2023-07-20T11:18:33;20.50;93.00
51863;DHT22;37900;52.996;6.278;2023-07-20T11:21:07;20.40;93.00
51863;DHT22;37900;52.996;6.278;2023-07-20T11:23:33;20.40;93.00
51863;DHT22;37900;52.996;6.278;2023-07-20T11:25:59;20.40;92.90
51863;DHT22;37900;52.996;6.278;2023-07-20T11:28:26;20.40;93.00
51863;DHT22;37900;52.996;6.278;2023-07-20T11:30:55;20.50;93.00
51863;DHT22;37900;52.996;6.278;2023-07-20T11:33:21;20.50;93.00
51863;DHT22;37900;52.996;6.278;2023-07-20T11:35:48;20.40;93.00
51863;DHT22;37900;52.996;6.278;2023-07-20T11:38:16;20.40;93.00
51863;DHT22;37900;52.996;6.278;2023-07-20T11:40:46;20.50;93.00
51863;DHT22;37900;52.996;6.278;2023-07-20T11:43:15;20.40;93.00
51863;DHT22;37900;52.996;6.278;2023-07-20T11:45:40;20.50;93.00
51863;DHT22;37900;52.996;6.278;2023-07-20T11:48:06;20.40;92.90
51863;DHT22;37900;52.996;6.278;2023-07-20T11:50:32;20.40;93.00
51863;DHT22;37900;52.996;6.278;2023-07-20T11:53:03;20.50;93.00
51863;DHT22;37900;52.996;6.278;2023-07-20T11:55:29;20.50;93.00
51863;DHT22;37900;52.996;6.278;2023-07-20T11:58:05;20.50;93.00
51863;DHT22;37900;52.996;6.278;2023-07-20T12:00:32;20.50;93.00
51863;DHT22;37900;52.996;6.278;2023-07-20T12:02:58;20.50;93.00
51863;DHT22;37900;52.996;6.278;2023-07-20T12:05:24;20.50;92.90
51863;DHT22;37900;52.996;6.278;2023-07-20T12:07:50;20.40;92.90
51863;DHT22;37900;52.996;6.278;2023-07-20T12:10:26;20.40;92.90
51863;DHT22;37900;52.996;6.278;2023-07-20T12:12:52;20.50;92.90
51863;DHT22;37900;52.996;6.278;2023-07-20T12:15:23;20.40;92.90
51863;DHT22;37900;52.996;6.278;2023-07-20T12:17:51;20.50;92.90
51863;DHT22;37900;52.996;6.278;2023-07-20T12:20:34;20.40;92.90
51863;DHT22;37900;52.996;6.278;2023-07-20T12:23:13;20.50;92.90
51863;DHT22;37900;52.996;6.278;2023-07-20T12:25:46;20.50;92.90
51863;DHT22;37900;52.996;6.278;2023-07-20T12:28:15;20.50;92.90
51863;DHT22;37900;52.996;6.278;2023-07-20T12:30:41;20.40;92.90
51863;DHT22;37900;52.996;6.278;2023-07-20T12:33:07;20.40;92.90
51863;DHT22;37900;52.996;6.278;2023-07-20T12:35:34;20.40;92.90
51863;DHT22;37900;52.996;6.278;2023-07-20T12:38:00;20.50;92.90
51863;DHT22;37900;52.996;6.278;2023-07-20T12:40:25;20.40;92.90
51863;DHT22;37900;52.996;6.278;2023-07-20T12:42:51;20.50;92.90
51863;DHT22;37900;52.996;6.278;2023-07-20T12:45:17;20.50;92.90
51863;DHT22;37900;52.996;6.278;2023-07-20T12:47:43;20.50;92.90
51863;DHT22;37900;52.996;6.278;2023-07-20T12:50:12;20.40;92.90
51863;DHT22;37900;52.996;6.278;2023-07-20T12:52:38;20.50;92.90
51863;DHT22;37900;52.996;6.278;2023-07-20T12:55:06;20.40;92.90
51863;DHT22;37900;52.996;6.278;2023-07-20T12:57:32;20.50;92.90
51863;DHT22;37900;52.996;6.278;2023-07-20T12:59:58;20.40;92.80
51863;DHT22;37900;52.996;6.278;2023-07-20T13:02:24;20.50;92.90
51863;DHT22;37900;52.996;6.278;2023-07-20T13:04:49;20.40;92.90
51863;DHT22;37900;52.996;6.278;2023-07-20T13:07:15;20.50;92.90
51863;DHT22;37900;52.996;6.278;2023-07-20T13:09:41;20.50;92.90
51863;DHT22;37900;52.996;6.278;2023-07-20T13:12:07;20.50;92.90
51863;DHT22;37900;52.996;6.278;2023-07-20T13:14:33;20.40;92.80
51863;DHT22;37900;52.996;6.278;2023-07-20T13:16:58;20.50;92.80
51863;DHT22;37900;52.996;6.278;2023-07-20T13:19:24;20.50;92.70
51863;DHT22;37900;52.996;6.278;2023-07-20T13:21:50;20.50;92.70
51863;DHT22;37900;52.996;6.278;2023-07-20T13:24:15;20.50;92.60
51863;DHT22;37900;52.996;6.278;2023-07-20T13:26:41;20.50;92.50
51863;DHT22;37900;52.996;6.278;2023-07-20T13:29:07;20.50;92.40
51863;DHT22;37900;52.996;6.278;2023-07-20T13:31:33;20.50;92.30
51863;DHT22;37900;52.996;6.278;2023-07-20T13:33:58;20.50;92.20
51863;DHT22;37900;52.996;6.278;2023-07-20T13:36:24;20.50;92.20
51863;DHT22;37900;52.996;6.278;2023-07-20T13:38:50;20.50;92.10
51863;DHT22;37900;52.996;6.278;2023-07-20T13:41:15;20.50;92.10
51863;DHT22;37900;52.996;6.278;2023-07-20T13:43:44;20.50;92.10
51863;DHT22;37900;52.996;6.278;2023-07-20T13:46:10;20.50;92.00
51863;DHT22;37900;52.996;6.278;2023-07-20T13:48:35;20.50;92.00
51863;DHT22;37900;52.996;6.278;2023-07-20T13:51:01;20.40;91.90
51863;DHT22;37900;52.996;6.278;2023-07-20T13:53:26;20.50;91.90
51863;DHT22;37900;52.996;6.278;2023-07-20T13:55:53;20.40;92.10
51863;DHT22;37900;52.996;6.278;2023-07-20T13:58:19;20.50;91.80
51863;DHT22;37900;52.996;6.278;2023-07-20T14:00:44;20.50;91.90
51863;DHT22;37900;52.996;6.278;2023-07-20T14:03:10;20.50;91.80
51863;DHT22;37900;52.996;6.278;2023-07-20T14:05:36;20.50;91.70
51863;DHT22;37900;52.996;6.278;2023-07-20T14:08:01;20.50;91.70
51863;DHT22;37900;52.996;6.278;2023-07-20T14:10:27;20.50;91.80
51863;DHT22;37900;52.996;6.278;2023-07-20T14:12:53;20.40;91.70
51863;DHT22;37900;52.996;6.278;2023-07-20T14:15:18;20.50;91.70
51863;DHT22;37900;52.996;6.278;2023-07-20T14:17:45;20.50;91.70
51863;DHT22;37900;52.996;6.278;2023-07-20T14:20:11;20.50;91.70
51863;DHT22;37900;52.996;6.278;2023-07-20T14:22:37;20.40;91.70
51863;DHT22;37900;52.996;6.278;2023-07-20T14:25:03;20.50;91.70
51863;DHT22;37900;52.996;6.278;2023-07-20T14:27:28;20.50;91.70
51863;DHT22;37900;52.996;6.278;2023-07-20T14:29:54;20.50;91.70
51863;DHT22;37900;52.996;6.278;2023-07-20T14:32:21;20.50;91.70
51863;DHT22;37900;52.996;6.278;2023-07-20T14:34:46;20.50;91.70
51863;DHT22;37900;52.996;6.278;2023-07-20T14:37:12;20.50;91.70
51863;DHT22;37900;52.996;6.278;2023-07-20T14:39:38;20.50;91.70
51863;DHT22;37900;52.996;6.278;2023-07-20T14:42:04;20.50;91.60
51863;DHT22;37900;52.996;6.278;2023-07-20T14:44:30;20.50;91.60
51863;DHT22;37900;52.996;6.278;2023-07-20T14:46:56;20.50;91.60
51863;DHT22;37900;52.996;6.278;2023-07-20T14:49:21;20.50;91.60
51863;DHT22;37900;52.996;6.278;2023-07-20T14:51:47;20.50;91.60
51863;DHT22;37900;52.996;6.278;2023-07-20T14:54:13;20.50;91.60
51863;DHT22;37900;52.996;6.278;2023-07-20T14:56:39;20.50;91.60
51863;DHT22;37900;52.996;6.278;2023-07-20T14:59:13;20.50;91.60
51863;DHT22;37900;52.996;6.278;2023-07-20T15:01:39;20.50;91.60
51863;DHT22;37900;52.996;6.278;2023-07-20T15:04:05;20.50;91.60
51863;DHT22;37900;52.996;6.278;2023-07-20T15:06:30;20.50;91.60
51863;DHT22;37900;52.996;6.278;2023-07-20T15:08:57;20.50;91.60
51863;DHT22;37900;52.996;6.278;2023-07-20T15:11:23;20.50;91.60
51863;DHT22;37900;52.996;6.278;2023-07-20T15:13:49;20.50;91.60
51863;DHT22;37900;52.996;6.278;2023-07-20T15:16:15;20.50;91.60
51863;DHT22;37900;52.996;6.278;2023-07-20T15:18:40;20.50;91.60
51863;DHT22;37900;52.996;6.278;2023-07-20T15:21:06;20.50;91.60
51863;DHT22;37900;52.996;6.278;2023-07-20T15:23:32;20.50;91.60
51863;DHT22;37900;52.996;6.278;2023-07-20T15:25:57;20.50;91.60
51863;DHT22;37900;52.996;6.278;2023-07-20T15:28:23;20.50;91.80
51863;DHT22;37900;52.996;6.278;2023-07-20T15:30:49;20.50;91.60
51863;DHT22;37900;52.996;6.278;2023-07-20T15:33:16;20.50;91.60
51863;DHT22;37900;52.996;6.278;2023-07-20T15:35:42;20.50;91.60
51863;DHT22;37900;52.996;6.278;2023-07-20T15:38:08;20.50;91.60
51863;DHT22;37900;52.996;6.278;2023-07-20T15:40:34;20.50;91.60
51863;DHT22;37900;52.996;6.278;2023-07-20T15:43:00;20.50;91.60